Time,TemperatureF,DewpointF,PressureIn,WindDirection,WindDirectionDegrees,WindSpeedMPH,WindSpeedGustMPH,Humidity,HourlyPrecipIn,Conditions,Clouds,dailyrainin,SoftwareType,DateUTC
2013-05-03 00:12:00,57.8,36.0,30.03,NW,317,0.0,-999.0,45,-99.99,,,0.00,weatherlink.com 1.10,2013-05-03 07:12:00,
2013-05-03 00:27:00,57.2,37.0,30.03,NW,317,0.0,-999.0,48,-99.99,,,0.00,weatherlink.com 1.10,2013-05-03 07:27:00,
2013-05-03 00:42:00,56.6,37.0,30.03,NW,317,0.0,-999.0,49,-99.99,,,0.00,weatherlink.com 1.10,2013-05-03 07:42:00,
2013-05-03 00:57:00,55.9,38.0,30.03,NW,317,0.0,-999.0,51,-99.99,,,0.00,weatherlink.com 1.10,2013-05-03 07:57:00,
2013-05-03 01:12:00,55.1,38.0,30.03,NW,317,0.0,-999.0,52,-99.99,,,0.00,weatherlink.com 1.10,2013-05-03 08:12:00,
2013-05-03 01:28:00,54.5,37.0,30.02,NW,317,0.0,-999.0,53,-99.99,,,0.00,weatherlink.com 1.10,2013-05-03 08:28:00,
2013-05-03 01:43:00,53.9,37.0,30.02,NW,317,0.0,-999.0,54,-99.99,,,0.00,weatherlink.com 1.10,2013-05-03 08:43:00,
2013-05-03 01:58:00,53.6,38.0,30.02,NW,317,0.0,-999.0,55,-99.99,,,0.00,weatherlink.com 1.10,2013-05-03 08:58:00,
2013-05-03 02:13:00,53.2,37.0,30.01,NW,317,0.0,-999.0,55,-99.99,,,0.00,weatherlink.com 1.10,2013-05-03 09:13:00,
2013-05-03 02:28:00,52.9,37.0,30.01,NW,317,0.0,-999.0,56,-99.99,,,0.00,weatherlink.com 1.10,2013-05-03 09:28:00,
2013-05-03 02:43:00,52.5,37.0,30.01,NW,317,0.0,-999.0,57,-99.99,,,0.00,weatherlink.com 1.10,2013-05-03 09:43:00,
2013-05-03 02:58:00,51.9,37.0,30.01,NW,317,0.0,-999.0,58,-99.99,,,0.00,weatherlink.com 1.10,2013-05-03 09:58:00,
2013-05-03 03:13:00,51.4,37.0,30.01,NW,317,0.0,-999.0,59,-99.99,,,0.00,weatherlink.com 1.10,2013-05-03 10:13:00,
2013-05-03 03:28:00,50.8,37.0,30.00,NW,317,0.0,-999.0,60,-99.99,,,0.00,weatherlink.com 1.10,2013-05-03 10:28:00,
2013-05-03 03:43:00,50.1,37.0,30.00,NW,317,0.0,-999.0,62,-99.99,,,0.00,weatherlink.com 1.10,2013-05-03 10:43:00,
2013-05-03 03:58:00,49.6,37.0,29.99,NW,317,0.0,-999.0,62,-99.99,,,0.00,weatherlink.com 1.10,2013-05-03 10:58:00,
2013-05-03 04:13:00,49.2,37.0,29.98,NW,317,0.0,-999.0,63,-99.99,,,0.00,weatherlink.com 1.10,2013-05-03 11:13:00,
2013-05-03 04:28:00,48.8,37.0,29.99,NW,317,0.0,-999.0,64,-99.99,,,0.00,weatherlink.com 1.10,2013-05-03 11:28:00,
2013-05-03 04:43:00,48.5,37.0,29.99,NW,317,0.0,-999.0,64,-99.99,,,0.00,weatherlink.com 1.10,2013-05-03 11:43:00,
2013-05-03 04:58:00,48.2,37.0,29.98,NW,317,0.0,-999.0,65,-99.99,,,0.00,weatherlink.com 1.10,2013-05-03 11:58:00,
2013-05-03 05:13:00,47.7,37.0,29.98,NW,317,0.0,-999.0,66,-99.99,,,0.00,weatherlink.com 1.10,2013-05-03 12:13:00,
2013-05-03 05:28:00,47.6,37.0,29.98,NW,317,0.0,-999.0,66,-99.99,,,0.00,weatherlink.com 1.10,2013-05-03 12:28:00,
2013-05-03 05:43:00,47.4,37.0,29.98,NW,317,0.0,-999.0,67,-99.99,,,0.00,weatherlink.com 1.10,2013-05-03 12:43:00,
2013-05-03 05:58:00,47.0,36.0,29.98,NW,317,0.0,-999.0,67,-99.99,,,0.00,weatherlink.com 1.10,2013-05-03 12:58:00,
2013-05-03 06:13:00,46.5,36.0,29.98,NW,317,0.0,-999.0,68,-99.99,,,0.00,weatherlink.com 1.10,2013-05-03 13:13:00,
2013-05-03 06:28:00,46.2,37.0,29.98,NW,317,0.0,-999.0,69,-99.99,,,0.00,weatherlink.com 1.10,2013-05-03 13:28:00,
2013-05-03 06:43:00,46.1,37.0,29.98,NW,317,0.0,-999.0,70,-99.99,,,0.00,weatherlink.com 1.10,2013-05-03 13:43:00,
2013-05-03 06:58:00,46.5,38.0,29.99,NW,317,0.0,-999.0,71,-99.99,,,0.00,weatherlink.com 1.10,2013-05-03 13:58:00,
2013-05-03 07:13:00,47.6,39.0,29.99,WNW,296,0.0,-999.0,71,-99.99,,,0.00,weatherlink.com 1.10,2013-05-03 14:13:00,
2013-05-03 07:28:00,48.9,40.0,29.99,NW,306,0.0,-999.0,72,-99.99,,,0.00,weatherlink.com 1.10,2013-05-03 14:28:00,
2013-05-03 07:43:00,51.1,40.0,29.99,NW,306,0.0,-999.0,67,-99.99,,,0.00,weatherlink.com 1.10,2013-05-03 14:43:00,
2013-05-03 07:58:00,54.5,41.0,29.99,NNE,24,0.0,-999.0,60,-99.99,,,0.00,weatherlink.com 1.10,2013-05-03 14:58:00,
2013-05-03 08:13:00,58.3,41.0,29.99,NNE,24,0.0,-999.0,52,-99.99,,,0.00,weatherlink.com 1.10,2013-05-03 15:13:00,
2013-05-03 08:28:00,61.8,43.0,29.99,North,355,0.0,-999.0,51,-99.99,,,0.00,weatherlink.com 1.10,2013-05-03 15:28:00,
2013-05-03 08:43:00,64.7,38.0,29.98,WSW,245,0.0,-999.0,37,-99.99,,,0.00,weatherlink.com 1.10,2013-05-03 15:43:00,
2013-05-03 08:59:00,67.3,38.0,29.97,WSW,245,0.0,-999.0,34,-99.99,,,0.00,weatherlink.com 1.10,2013-05-03 15:59:00,
2013-05-03 09:14:00,69.4,40.0,29.97,WSW,244,0.0,-999.0,34,-99.99,,,0.00,weatherlink.com 1.10,2013-05-03 16:14:00,
2013-05-03 09:29:00,71.8,38.0,29.96,WSW,244,0.0,-999.0,29,-99.99,,,0.00,weatherlink.com 1.10,2013-05-03 16:29:00,
2013-05-03 09:44:00,73.5,40.0,29.96,SE,136,0.0,-999.0,30,-99.99,,,0.00,weatherlink.com 1.10,2013-05-03 16:44:00,
2013-05-03 09:59:00,75.6,38.0,29.95,SE,136,0.0,-999.0,26,-99.99,,,0.00,weatherlink.com 1.10,2013-05-03 16:59:00,
2013-05-03 10:14:00,77.2,34.0,29.94,SE,136,0.0,-999.0,21,-99.99,,,0.00,weatherlink.com 1.10,2013-05-03 17:14:00,
2013-05-03 10:30:00,79.6,36.0,29.93,ESE,117,0.0,-999.0,21,-99.99,,,0.00,weatherlink.com 1.10,2013-05-03 17:30:00,
2013-05-03 10:45:00,81.4,37.0,29.93,ESE,117,0.0,-999.0,20,-99.99,,,0.00,weatherlink.com 1.10,2013-05-03 17:45:00,
2013-05-03 11:00:00,83.4,36.0,29.92,ESE,123,0.0,-999.0,18,-99.99,,,0.00,weatherlink.com 1.10,2013-05-03 18:00:00,
2013-05-03 11:14:00,85.1,36.0,29.92,SW,232,0.0,-999.0,17,-99.99,,,0.00,weatherlink.com 1.10,2013-05-03 18:14:00,
2013-05-03 11:29:00,86.5,38.0,29.92,WNW,284,0.0,-999.0,18,-99.99,,,0.00,weatherlink.com 1.10,2013-05-03 18:29:00,
2013-05-03 11:44:00,87.2,37.0,29.91,West,274,0.0,-999.0,17,-99.99,,,0.00,weatherlink.com 1.10,2013-05-03 18:44:00,
2013-05-03 11:59:00,88.6,37.0,29.91,SE,135,0.0,-999.0,16,-99.99,,,0.00,weatherlink.com 1.10,2013-05-03 18:59:00,
2013-05-03 12:15:00,90.3,38.0,29.89,SE,132,0.0,-999.0,16,-99.99,,,0.00,weatherlink.com 1.10,2013-05-03 19:15:00,
2013-05-03 12:30:00,91.4,38.0,29.88,West,259,1.0,-999.0,15,-99.99,,,0.00,weatherlink.com 1.10,2013-05-03 19:30:00,
2013-05-03 12:45:00,91.8,38.0,29.87,SE,144,4.0,-999.0,15,-99.99,,,0.00,weatherlink.com 1.10,2013-05-03 19:45:00,
2013-05-03 13:01:00,91.6,36.0,29.87,ESE,120,0.0,-999.0,14,-99.99,,,0.00,weatherlink.com 1.10,2013-05-03 20:01:00,
2013-05-03 13:15:00,91.4,36.0,29.86,SE,142,4.0,-999.0,14,-99.99,,,0.00,weatherlink.com 1.10,2013-05-03 20:15:00,
2013-05-03 13:30:00,92.1,36.0,29.86,ESE,108,3.0,-999.0,14,-99.99,,,0.00,weatherlink.com 1.10,2013-05-03 20:30:00,
2013-05-03 13:45:00,92.5,35.0,29.84,SE,126,1.0,-999.0,13,-99.99,,,0.00,weatherlink.com 1.10,2013-05-03 20:45:00,
2013-05-03 14:01:00,93.4,37.0,29.84,SSE,150,4.0,-999.0,14,-99.99,,,0.00,weatherlink.com 1.10,2013-05-03 21:01:00,
2013-05-03 14:15:00,93.6,36.0,29.84,East,101,0.0,-999.0,13,-99.99,,,0.00,weatherlink.com 1.10,2013-05-03 21:15:00,
2013-05-03 14:30:00,93.8,36.0,29.83,SE,126,1.0,-999.0,13,-99.99,,,0.00,weatherlink.com 1.10,2013-05-03 21:30:00,
2013-05-03 14:45:00,93.8,36.0,29.82,WSW,254,0.0,-999.0,13,-99.99,,,0.00,weatherlink.com 1.10,2013-05-03 21:45:00,
2013-05-03 15:01:00,94.0,38.0,29.81,South,169,0.0,-999.0,14,-99.99,,,0.00,weatherlink.com 1.10,2013-05-03 22:01:00,
2013-05-03 15:15:00,94.5,34.0,29.80,SSE,162,3.0,-999.0,12,-99.99,,,0.00,weatherlink.com 1.10,2013-05-03 22:15:00,
2013-05-03 15:30:00,95.6,37.0,29.80,WSW,254,3.0,-999.0,13,-99.99,,,0.00,weatherlink.com 1.10,2013-05-03 22:30:00,
2013-05-03 15:46:00,96.1,36.0,29.79,SW,229,0.0,-999.0,12,-99.99,,,0.00,weatherlink.com 1.10,2013-05-03 22:46:00,
2013-05-03 16:01:00,96.6,47.0,29.78,West,277,7.0,-999.0,18,-99.99,,,0.00,weatherlink.com 1.10,2013-05-03 23:01:00,
2013-05-03 16:16:00,94.0,47.0,29.78,NW,321,3.0,-999.0,20,-99.99,,,0.00,weatherlink.com 1.10,2013-05-03 23:16:00,
2013-05-03 16:31:00,92.5,46.0,29.78,WNW,288,5.0,-999.0,20,-99.99,,,0.00,weatherlink.com 1.10,2013-05-03 23:31:00,
2013-05-03 16:46:00,91.6,46.0,29.78,WNW,286,5.0,-999.0,21,-99.99,,,0.00,weatherlink.com 1.10,2013-05-03 23:46:00,
2013-05-03 17:01:00,90.3,43.0,29.78,West,274,6.0,-999.0,19,-99.99,,,0.00,weatherlink.com 1.10,2013-05-04 00:01:00,
2013-05-03 17:15:00,89.0,42.0,29.78,West,281,4.0,-999.0,19,-99.99,,,0.00,weatherlink.com 1.10,2013-05-04 00:15:00,
2013-05-03 17:30:00,88.6,41.0,29.78,WNW,292,4.0,-999.0,19,-99.99,,,0.00,weatherlink.com 1.10,2013-05-04 00:30:00,
2013-05-03 17:45:00,88.2,42.0,29.78,NNW,336,0.0,-999.0,20,-99.99,,,0.00,weatherlink.com 1.10,2013-05-04 00:45:00,
2013-05-03 18:01:00,86.7,38.0,29.78,NW,304,4.0,-999.0,18,-99.99,,,0.00,weatherlink.com 1.10,2013-05-04 01:01:00,
2013-05-03 18:15:00,85.7,36.0,29.77,NW,325,1.0,-999.0,17,-99.99,,,0.00,weatherlink.com 1.10,2013-05-04 01:15:00,
2013-05-03 18:30:00,85.3,37.0,29.77,NW,307,4.0,-999.0,18,-99.99,,,0.00,weatherlink.com 1.10,2013-05-04 01:30:00,
2013-05-03 18:45:00,84.5,38.0,29.77,NW,326,3.0,-999.0,19,-99.99,,,0.00,weatherlink.com 1.10,2013-05-04 01:45:00,
2013-05-03 19:00:00,83.8,37.0,29.77,WNW,294,4.0,-999.0,19,-99.99,,,0.00,weatherlink.com 1.10,2013-05-04 02:00:00,
2013-05-03 19:15:00,83.0,37.0,29.77,WNW,292,0.0,-999.0,19,-99.99,,,0.00,weatherlink.com 1.10,2013-05-04 02:15:00,
2013-05-03 19:30:00,82.4,37.0,29.76,NW,315,0.0,-999.0,20,-99.99,,,0.00,weatherlink.com 1.10,2013-05-04 02:30:00,
2013-05-03 19:45:00,81.1,36.0,29.76,NW,315,0.0,-999.0,20,-99.99,,,0.00,weatherlink.com 1.10,2013-05-04 02:45:00,
2013-05-03 20:00:00,80.1,36.0,29.76,NW,311,0.0,-999.0,20,-99.99,,,0.00,weatherlink.com 1.10,2013-05-04 03:00:00,
2013-05-03 20:15:00,79.2,36.0,29.76,NW,311,0.0,-999.0,21,-99.99,,,0.00,weatherlink.com 1.10,2013-05-04 03:15:00,
2013-05-03 20:30:00,77.9,38.0,29.76,NW,311,0.0,-999.0,24,-99.99,,,0.00,weatherlink.com 1.10,2013-05-04 03:30:00,
2013-05-03 20:45:00,76.0,39.0,29.77,NW,311,0.0,-999.0,26,-99.99,,,0.00,weatherlink.com 1.10,2013-05-04 03:45:00,
2013-05-03 21:01:00,73.5,38.0,29.77,NW,311,0.0,-999.0,28,-99.99,,,0.00,weatherlink.com 1.10,2013-05-04 04:01:00,
2013-05-03 21:16:00,71.6,38.0,29.77,NW,311,0.0,-999.0,29,-99.99,,,0.00,weatherlink.com 1.10,2013-05-04 04:16:00,
2013-05-03 21:31:00,70.1,38.0,29.77,NW,311,0.0,-999.0,31,-99.99,,,0.00,weatherlink.com 1.10,2013-05-04 04:31:00,
2013-05-03 21:46:00,68.8,39.0,29.77,NW,311,0.0,-999.0,34,-99.99,,,0.00,weatherlink.com 1.10,2013-05-04 04:46:00,
2013-05-03 22:01:00,67.3,40.0,29.77,NW,311,0.0,-999.0,37,-99.99,,,0.00,weatherlink.com 1.10,2013-05-04 05:01:00,
2013-05-03 22:16:00,66.0,40.0,29.77,NW,311,0.0,-999.0,39,-99.99,,,0.00,weatherlink.com 1.10,2013-05-04 05:16:00,
2013-05-03 22:31:00,64.8,40.0,29.77,NW,311,0.0,-999.0,41,-99.99,,,0.00,weatherlink.com 1.10,2013-05-04 05:31:00,
2013-05-03 22:46:00,63.4,41.0,29.77,NW,311,0.0,-999.0,44,-99.99,,,0.00,weatherlink.com 1.10,2013-05-04 05:46:00,
2013-05-03 23:01:00,62.4,41.0,29.77,NW,311,0.0,-999.0,45,-99.99,,,0.00,weatherlink.com 1.10,2013-05-04 06:01:00,
2013-05-03 23:16:00,61.6,40.0,29.76,NW,311,0.0,-999.0,46,-99.99,,,0.00,weatherlink.com 1.10,2013-05-04 06:16:00,
2013-05-03 23:31:00,60.9,41.0,29.75,NW,311,0.0,-999.0,48,-99.99,,,0.00,weatherlink.com 1.10,2013-05-04 06:31:00,
2013-05-03 23:46:00,60.1,41.0,29.75,NW,311,0.0,-999.0,50,-99.99,,,0.00,weatherlink.com 1.10,2013-05-04 06:46:00,